Blessing Sw — 3FIP7 — position and weather

sailwx.info

Track history (hours):
 
Tides and Currents Weather Stations Pressure Air Temp Water Temp Dewpoint Dewpoint Depression Visibility Wind Speed Wind Dir Waves Ship Positions

Blessing Sw

Last reported at 2015-Jul-07 10:30 UTC. Time now 2015-Jul-07 11:09 UTC.
Position N 34°44' E 010°46'.

Length 171 m; draft 9.6 m.

Type: Cargo ship. MMSI: 372085000.

Date/timePositionNaut miles runAvg speedWind from/ knotsBaromVisibWave heightAir tempDewpointWater temp
2015-Jul-07 10:30N 34°44' E 010°46'0 0.0
2015-Jul-05 11:09N 34°44' E 010°46'0 0.0
2015-Jul-05 09:33N 34°44' E 010°46'0 0.0
2015-Jul-04 12:18N 34°44' E 010°46'  
2015-Jun-30 08:33N 34°43' E 010°47'11 0.4
2015-Jun-29 05:18N 34°33' E 010°51'7 8.9
2015-Jun-29 04:33N 34°27' E 010°54'1110.6
2015-Jun-29 03:33N 34°27' E 011°07'8611.6
2015-Jun-28 20:04N 34°41' E 012°51'611.4
2015-Jun-28 19:34N 34°42' E 012°58'1111.4
2015-Jun-28 18:33N 34°44' E 013°11'1211.5
2015-Jun-28 17:33N 34°45' E 013°25'1110.9
2015-Jun-28 16:32N 34°47' E 013°39'3411.0
2015-Jun-28 13:24N 34°52' E 014°20'910.7
2015-Jun-28 12:33N 34°54' E 014°31'1110.6
2015-Jun-28 11:32N 34°55' E 014°44'3610.7
2015-Jun-28 08:13N 35°01' E 015°27'711.2
2015-Jun-28 07:33N 35°02' E 015°36'  
Track history (hours):
 
Tides and Currents Weather Stations Pressure Air Temp Water Temp Dewpoint Dewpoint Depression Visibility Wind Speed Wind Dir Waves Ship Positions

Blessing Sw

Last reported at 2015-Jul-07 10:30 UTC. Time now 2015-Jul-07 11:09 UTC.
Position N 34°44' E 010°46'.

Length 171 m; draft 9.6 m.

Type: Cargo ship. MMSI: 372085000.

Date/timePositionNaut miles runAvg speedWind from/ knotsBaromVisibWave heightAir tempDewpointWater temp
2015-Jul-07 10:30N 34°44' E 010°46'0 0.0
2015-Jul-05 11:09N 34°44' E 010°46'0 0.0
2015-Jul-05 09:33N 34°44' E 010°46'0 0.0
2015-Jul-04 12:18N 34°44' E 010°46'  
2015-Jun-30 08:33N 34°43' E 010°47'11 0.4
2015-Jun-29 05:18N 34°33' E 010°51'7 8.9
2015-Jun-29 04:33N 34°27' E 010°54'1110.6
2015-Jun-29 03:33N 34°27' E 011°07'8611.6
2015-Jun-28 20:04N 34°41' E 012°51'611.4
2015-Jun-28 19:34N 34°42' E 012°58'1111.4
2015-Jun-28 18:33N 34°44' E 013°11'1211.5
2015-Jun-28 17:33N 34°45' E 013°25'1110.9
2015-Jun-28 16:32N 34°47' E 013°39'3411.0
2015-Jun-28 13:24N 34°52' E 014°20'910.7
2015-Jun-28 12:33N 34°54' E 014°31'1110.6
2015-Jun-28 11:32N 34°55' E 014°44'3610.7
2015-Jun-28 08:13N 35°01' E 015°27'711.2
2015-Jun-28 07:33N 35°02' E 015°36'  

Dump ship's entire track history